Main page
METAR-TAF:

METAR-TAF

Airports :

Mitiga International Airport

Tripoli, Libya

latitude: 32-54N, longitude: 13-17E, elevation: 11 m

METAR: missing

Time: 12:50 (10:50 UTC)

Forecast

The report was made 23 hours and 50 minutes ago, at 11:00 UTC
Forecast valid from 28 at 12 UTC to 29 at 12 UTC
Wind 10 kt from the Northeast
Visibility: 7000 m
Scattered clouds at a height of 2500 ft
Scattered clouds at a height of 7000 ft
Probability 30% :
Temporary
from 28 at 12 UTC to 29 at 03 UTC
Visibility: 6000 m
Broken clouds at a height of 2000 ft
rain showers
Becoming
from 28 at 21 UTC to 28 at 23 UTC
Wind 10 kt from the South/Southwest

TAF: HLLM 281100Z 2812/2912 05010KT 7000 SCT025 SCT070 PROB30 TEMPO 2812/2903 6000 SHRA BKN020 BECMG 2821/2823 20010KT

Weather observations and forecasts of more than 4000 airports (METAR and TAF reports).

The available stations are represented by yellow and red dots on the map.

Hover mouse over dot to see the name of the station.

Then click to see weather observations and forecasts.

To change the map : click on the green buttons with a black cross to zoom in, on the green button with a dash to zoom out, or on the green arrows for adjacent maps.


METAR-TAF: